Terminal Aerodrome Forecast
Issued by NWS

Home | Current Version | Previous Version | Text Only | Print | Product List | Glossary On
Versions: 1 2 3 4 5 6 7 8 9 10 11 12 13 14 15 16 17 18
145
FTUS45 KTFX 270536
TAFCTB
TAF
KCTB 270536Z 2706/2806 24009KT P6SM SKC
     FM271800 25022G35KT P6SM FEW080
     FM280200 01015G23KT P6SM BKN035=

USA.gov is the U.S. government's official web portal to all federal, state and local government web resources and services.